sensor_id;sensor_type;location;lat;lon;timestamp;pressure;altitude;pressure_sealevel;temperature;humidity
26807;BME280;14380;49.910;6.792;2023-07-13T00:02:16;98849.19;;;15.75;96.15
26807;BME280;14380;49.910;6.792;2023-07-13T00:04:44;98843.94;;;15.87;94.63
26807;BME280;14380;49.910;6.792;2023-07-13T00:07:10;98843.34;;;15.95;94.33
26807;BME280;14380;49.910;6.792;2023-07-13T00:09:39;98846.78;;;15.72;95.49
26807;BME280;14380;49.910;6.792;2023-07-13T00:12:22;98839.41;;;16.00;93.13
26807;BME280;14380;49.910;6.792;2023-07-13T00:14:49;98844.97;;;15.97;93.72
26807;BME280;14380;49.910;6.792;2023-07-13T00:17:15;98844.09;;;15.97;93.27
26807;BME280;14380;49.910;6.792;2023-07-13T00:19:43;98842.41;;;15.96;93.00
26807;BME280;14380;49.910;6.792;2023-07-13T00:22:11;98845.06;;;15.96;93.05
26807;BME280;14380;49.910;6.792;2023-07-13T00:24:37;98842.75;;;15.91;94.33
26807;BME280;14380;49.910;6.792;2023-07-13T00:27:10;98839.66;;;16.09;92.59
26807;BME280;14380;49.910;6.792;2023-07-13T00:29:37;98837.38;;;16.15;94.68
26807;BME280;14380;49.910;6.792;2023-07-13T00:32:05;98821.03;;;16.09;96.23
26807;BME280;14380;49.910;6.792;2023-07-13T00:34:32;98823.75;;;15.96;95.93
26807;BME280;14380;49.910;6.792;2023-07-13T00:37:00;98828.47;;;15.92;95.77
26807;BME280;14380;49.910;6.792;2023-07-13T00:39:27;98817.94;;;15.90;93.88
26807;BME280;14380;49.910;6.792;2023-07-13T00:41:54;98825.06;;;15.54;97.28
26807;BME280;14380;49.910;6.792;2023-07-13T00:44:21;98820.28;;;15.71;96.22
26807;BME280;14380;49.910;6.792;2023-07-13T00:46:48;98814.31;;;15.56;95.89
26807;BME280;14380;49.910;6.792;2023-07-13T00:49:19;98810.97;;;15.65;95.61
26807;BME280;14380;49.910;6.792;2023-07-13T00:51:49;98818.69;;;15.68;95.54
26807;BME280;14380;49.910;6.792;2023-07-13T00:54:21;98824.00;;;15.57;95.62
26807;BME280;14380;49.910;6.792;2023-07-13T00:56:50;98826.81;;;15.42;97.19
26807;BME280;14380;49.910;6.792;2023-07-13T00:59:20;98832.38;;;15.39;96.33
26807;BME280;14380;49.910;6.792;2023-07-13T01:01:48;98829.53;;;15.54;95.13
26807;BME280;14380;49.910;6.792;2023-07-13T01:04:16;98826.91;;;15.29;97.48
26807;BME280;14380;49.910;6.792;2023-07-13T01:06:43;98829.25;;;15.21;97.99
26807;BME280;14380;49.910;6.792;2023-07-13T01:09:11;98824.69;;;15.23;98.02
26807;BME280;14380;49.910;6.792;2023-07-13T01:11:39;98837.22;;;14.97;99.55
26807;BME280;14380;49.910;6.792;2023-07-13T01:14:06;98832.31;;;15.28;96.89
26807;BME280;14380;49.910;6.792;2023-07-13T01:16:34;98830.50;;;15.28;98.06
26807;BME280;14380;49.910;6.792;2023-07-13T01:19:03;98836.44;;;15.32;96.41
26807;BME280;14380;49.910;6.792;2023-07-13T01:21:33;98836.63;;;15.42;96.92
26807;BME280;14380;49.910;6.792;2023-07-13T01:24:00;98841.44;;;15.61;97.26
26807;BME280;14380;49.910;6.792;2023-07-13T01:26:27;98849.00;;;15.30;99.46
26807;BME280;14380;49.910;6.792;2023-07-13T01:28:54;98852.16;;;15.59;96.92
26807;BME280;14380;49.910;6.792;2023-07-13T01:31:21;98852.91;;;15.61;98.22
26807;BME280;14380;49.910;6.792;2023-07-13T01:33:48;98846.56;;;15.51;100.00
26807;BME280;14380;49.910;6.792;2023-07-13T01:36:14;98850.44;;;15.23;100.00
26807;BME280;14380;49.910;6.792;2023-07-13T01:38:42;98847.03;;;15.21;100.00
26807;BME280;14380;49.910;6.792;2023-07-13T01:41:09;98838.94;;;15.22;100.00
26807;BME280;14380;49.910;6.792;2023-07-13T01:43:36;98841.59;;;15.22;100.00
26807;BME280;14380;49.910;6.792;2023-07-13T01:46:02;98836.41;;;15.21;100.00
26807;BME280;14380;49.910;6.792;2023-07-13T01:48:29;98833.56;;;15.35;99.43
26807;BME280;14380;49.910;6.792;2023-07-13T01:50:55;98840.56;;;15.36;99.76
26807;BME280;14380;49.910;6.792;2023-07-13T01:53:22;98838.59;;;15.51;98.27
26807;BME280;14380;49.910;6.792;2023-07-13T01:55:50;98848.72;;;15.46;98.88
26807;BME280;14380;49.910;6.792;2023-07-13T01:58:16;98853.28;;;15.68;100.00
26807;BME280;14380;49.910;6.792;2023-07-13T02:00:43;98850.66;;;15.44;100.00
26807;BME280;14380;49.910;6.792;2023-07-13T02:03:09;98860.44;;;15.19;100.00
26807;BME280;14380;49.910;6.792;2023-07-13T02:05:36;98853.16;;;14.97;100.00
26807;BME280;14380;49.910;6.792;2023-07-13T02:08:03;98856.78;;;14.96;100.00
26807;BME280;14380;49.910;6.792;2023-07-13T02:10:29;98859.03;;;14.89;100.00
26807;BME280;14380;49.910;6.792;2023-07-13T02:12:57;98855.34;;;14.53;100.00
26807;BME280;14380;49.910;6.792;2023-07-13T02:15:24;98864.88;;;14.68;100.00
26807;BME280;14380;49.910;6.792;2023-07-13T02:17:51;98855.53;;;14.89;100.00
26807;BME280;14380;49.910;6.792;2023-07-13T02:20:17;98855.47;;;15.01;100.00
26807;BME280;14380;49.910;6.792;2023-07-13T02:22:44;98857.88;;;14.93;100.00
26807;BME280;14380;49.910;6.792;2023-07-13T02:25:10;98868.22;;;14.72;100.00
26807;BME280;14380;49.910;6.792;2023-07-13T02:27:37;98866.50;;;14.84;100.00
26807;BME280;14380;49.910;6.792;2023-07-13T02:30:06;98859.13;;;14.87;100.00
26807;BME280;14380;49.910;6.792;2023-07-13T02:32:33;98865.19;;;14.90;100.00
26807;BME280;14380;49.910;6.792;2023-07-13T02:35:01;98858.06;;;15.27;100.00
26807;BME280;14380;49.910;6.792;2023-07-13T02:37:27;98867.00;;;15.02;100.00
26807;BME280;14380;49.910;6.792;2023-07-13T02:39:55;98859.13;;;14.87;100.00
26807;BME280;14380;49.910;6.792;2023-07-13T02:42:21;98855.47;;;15.14;100.00
26807;BME280;14380;49.910;6.792;2023-07-13T02:44:48;98858.59;;;15.32;100.00
26807;BME280;14380;49.910;6.792;2023-07-13T02:47:17;98854.75;;;15.37;100.00
26807;BME280;14380;49.910;6.792;2023-07-13T02:49:43;98861.31;;;15.44;99.57
26807;BME280;14380;49.910;6.792;2023-07-13T02:52:10;98855.06;;;15.56;97.99
26807;BME280;14380;49.910;6.792;2023-07-13T02:54:36;98856.22;;;15.76;97.14
26807;BME280;14380;49.910;6.792;2023-07-13T02:57:04;98860.44;;;15.68;99.06
26807;BME280;14380;49.910;6.792;2023-07-13T02:59:30;98854.97;;;15.69;98.01
26807;BME280;14380;49.910;6.792;2023-07-13T03:01:57;98851.34;;;15.59;99.22
26807;BME280;14380;49.910;6.792;2023-07-13T03:04:25;98859.25;;;15.72;96.53
26807;BME280;14380;49.910;6.792;2023-07-13T03:06:51;98863.38;;;15.76;95.78
26807;BME280;14380;49.910;6.792;2023-07-13T03:09:18;98864.44;;;15.73;96.36
26807;BME280;14380;49.910;6.792;2023-07-13T03:11:44;98862.97;;;15.69;95.68
26807;BME280;14380;49.910;6.792;2023-07-13T03:14:11;98863.59;;;15.73;95.07
26807;BME280;14380;49.910;6.792;2023-07-13T03:16:38;98865.59;;;15.58;96.16
26807;BME280;14380;49.910;6.792;2023-07-13T03:19:05;98863.16;;;15.30;98.23
26807;BME280;14380;49.910;6.792;2023-07-13T03:21:32;98860.59;;;15.53;95.77
26807;BME280;14380;49.910;6.792;2023-07-13T03:23:59;98867.41;;;15.57;95.62
26807;BME280;14380;49.910;6.792;2023-07-13T03:26:26;98871.53;;;15.37;96.74
26807;BME280;14380;49.910;6.792;2023-07-13T03:28:52;98868.88;;;15.37;96.61
26807;BME280;14380;49.910;6.792;2023-07-13T03:31:20;98873.47;;;15.35;97.13
26807;BME280;14380;49.910;6.792;2023-07-13T03:33:47;98874.44;;;14.97;100.00
26807;BME280;14380;49.910;6.792;2023-07-13T03:36:17;98878.00;;;15.09;99.58
26807;BME280;14380;49.910;6.792;2023-07-13T03:38:46;98872.47;;;15.12;100.00
26807;BME280;14380;49.910;6.792;2023-07-13T03:41:14;98883.25;;;15.10;100.00
26807;BME280;14380;49.910;6.792;2023-07-13T03:43:41;98884.72;;;15.01;100.00
26807;BME280;14380;49.910;6.792;2023-07-13T03:46:07;98891.34;;;14.96;100.00
26807;BME280;14380;49.910;6.792;2023-07-13T03:48:34;98890.72;;;14.66;100.00
26807;BME280;14380;49.910;6.792;2023-07-13T03:51:01;98897.94;;;14.64;100.00
26807;BME280;14380;49.910;6.792;2023-07-13T03:53:27;98897.41;;;14.98;100.00
26807;BME280;14380;49.910;6.792;2023-07-13T03:55:55;98891.53;;;15.06;100.00
26807;BME280;14380;49.910;6.792;2023-07-13T03:58:30;98897.56;;;14.70;100.00
26807;BME280;14380;49.910;6.792;2023-07-13T04:00:58;98899.78;;;14.77;100.00
26807;BME280;14380;49.910;6.792;2023-07-13T04:03:40;98913.75;;;15.05;100.00
26807;BME280;14380;49.910;6.792;2023-07-13T04:06:08;98908.84;;;14.74;100.00
26807;BME280;14380;49.910;6.792;2023-07-13T04:08:40;98910.19;;;14.80;100.00
26807;BME280;14380;49.910;6.792;2023-07-13T04:11:09;98906.34;;;14.97;100.00
26807;BME280;14380;49.910;6.792;2023-07-13T04:13:35;98901.47;;;15.28;100.00
26807;BME280;14380;49.910;6.792;2023-07-13T04:16:02;98901.44;;;15.41;98.20
26807;BME280;14380;49.910;6.792;2023-07-13T04:18:29;98902.34;;;15.77;96.87
26807;BME280;14380;49.910;6.792;2023-07-13T04:20:55;98900.38;;;15.92;94.42
26807;BME280;14380;49.910;6.792;2023-07-13T04:23:22;98905.47;;;16.31;92.63
26807;BME280;14380;49.910;6.792;2023-07-13T04:25:50;98908.03;;;16.55;90.79
26807;BME280;14380;49.910;6.792;2023-07-13T04:28:21;98906.59;;;16.85;89.21
26807;BME280;14380;49.910;6.792;2023-07-13T04:30:48;98915.56;;;17.18;88.25
26807;BME280;14380;49.910;6.792;2023-07-13T04:33:15;98915.91;;;17.25;87.04
26807;BME280;14380;49.910;6.792;2023-07-13T04:35:42;98914.09;;;17.37;85.98
26807;BME280;14380;49.910;6.792;2023-07-13T04:38:09;98917.09;;;17.88;86.70
26807;BME280;14380;49.910;6.792;2023-07-13T04:40:36;98911.59;;;18.01;83.98
26807;BME280;14380;49.910;6.792;2023-07-13T04:43:03;98917.28;;;18.28;82.60
26807;BME280;14380;49.910;6.792;2023-07-13T04:45:31;98920.13;;;18.58;81.86
26807;BME280;14380;49.910;6.792;2023-07-13T04:47:57;98918.59;;;18.86;80.53
26807;BME280;14380;49.910;6.792;2023-07-13T04:50:24;98914.72;;;19.41;79.25
26807;BME280;14380;49.910;6.792;2023-07-13T04:52:50;98909.19;;;19.33;79.78
26807;BME280;14380;49.910;6.792;2023-07-13T04:55:17;98913.69;;;19.32;78.79
26807;BME280;14380;49.910;6.792;2023-07-13T04:57:45;98917.59;;;19.89;78.66
26807;BME280;14380;49.910;6.792;2023-07-13T05:00:12;98924.94;;;19.97;77.57
26807;BME280;14380;49.910;6.792;2023-07-13T05:02:43;98920.69;;;19.94;77.73
26807;BME280;14380;49.910;6.792;2023-07-13T05:05:10;98926.19;;;20.22;75.94
26807;BME280;14380;49.910;6.792;2023-07-13T05:07:36;98924.50;;;20.01;78.18
26807;BME280;14380;49.910;6.792;2023-07-13T05:10:03;98918.09;;;20.52;75.15
26807;BME280;14380;49.910;6.792;2023-07-13T05:12:30;98931.13;;;20.17;77.23
26807;BME280;14380;49.910;6.792;2023-07-13T05:14:58;98925.00;;;20.54;76.12
26807;BME280;14380;49.910;6.792;2023-07-13T05:17:25;98922.31;;;20.54;76.15
26807;BME280;14380;49.910;6.792;2023-07-13T05:19:53;98922.72;;;20.59;74.59
26807;BME280;14380;49.910;6.792;2023-07-13T05:22:19;98921.66;;;20.32;76.60
26807;BME280;14380;49.910;6.792;2023-07-13T05:24:46;98925.31;;;20.99;73.44
26807;BME280;14380;49.910;6.792;2023-07-13T05:27:12;98938.91;;;20.87;74.74
26807;BME280;14380;49.910;6.792;2023-07-13T05:29:39;98928.19;;;20.87;74.58
26807;BME280;14380;49.910;6.792;2023-07-13T05:32:06;98922.94;;;21.42;73.46
26807;BME280;14380;49.910;6.792;2023-07-13T05:34:33;98935.72;;;21.67;73.31
26807;BME280;14380;49.910;6.792;2023-07-13T05:37:00;98938.13;;;21.61;71.91
26807;BME280;14380;49.910;6.792;2023-07-13T05:39:27;98936.53;;;21.86;72.63
26807;BME280;14380;49.910;6.792;2023-07-13T05:41:54;98936.22;;;20.87;73.39
26807;BME280;14380;49.910;6.792;2023-07-13T05:44:21;98941.25;;;21.10;74.15
26807;BME280;14380;49.910;6.792;2023-07-13T05:46:47;98940.69;;;21.80;73.34
26807;BME280;14380;49.910;6.792;2023-07-13T05:49:14;98938.28;;;21.59;74.15
26807;BME280;14380;49.910;6.792;2023-07-13T05:51:40;98931.28;;;21.48;75.06
26807;BME280;14380;49.910;6.792;2023-07-13T05:54:09;98931.94;;;21.96;74.03
26807;BME280;14380;49.910;6.792;2023-07-13T05:56:35;98926.94;;;22.02;72.50
26807;BME280;14380;49.910;6.792;2023-07-13T05:59:02;98937.41;;;21.13;74.76
26807;BME280;14380;49.910;6.792;2023-07-13T06:01:29;98941.19;;;21.20;75.13
26807;BME280;14380;49.910;6.792;2023-07-13T06:03:56;98938.22;;;20.75;75.61
26807;BME280;14380;49.910;6.792;2023-07-13T06:06:22;98944.31;;;20.58;77.58
26807;BME280;14380;49.910;6.792;2023-07-13T06:08:49;98940.91;;;20.75;77.79
26807;BME280;14380;49.910;6.792;2023-07-13T06:11:19;98940.41;;;20.42;76.42
26807;BME280;14380;49.910;6.792;2023-07-13T06:13:46;98941.34;;;20.61;76.69
26807;BME280;14380;49.910;6.792;2023-07-13T06:16:13;98945.53;;;20.06;76.81
26807;BME280;14380;49.910;6.792;2023-07-13T06:18:40;98952.72;;;21.30;75.75
26807;BME280;14380;49.910;6.792;2023-07-13T06:21:08;98952.75;;;21.76;75.63
26807;BME280;14380;49.910;6.792;2023-07-13T06:23:35;98952.63;;;21.78;73.14
26807;BME280;14380;49.910;6.792;2023-07-13T06:26:02;98955.13;;;21.79;73.13
26807;BME280;14380;49.910;6.792;2023-07-13T06:28:30;98952.53;;;22.06;72.17
26807;BME280;14380;49.910;6.792;2023-07-13T06:30:57;98958.22;;;22.21;72.42
26807;BME280;14380;49.910;6.792;2023-07-13T06:33:24;98956.88;;;21.43;72.08
26807;BME280;14380;49.910;6.792;2023-07-13T06:35:50;98950.56;;;21.34;76.64
26807;BME280;14380;49.910;6.792;2023-07-13T06:38:17;98964.41;;;21.67;74.49
26807;BME280;14380;49.910;6.792;2023-07-13T06:40:44;98958.81;;;21.96;71.66
26807;BME280;14380;49.910;6.792;2023-07-13T06:43:10;98963.53;;;22.49;71.19
26807;BME280;14380;49.910;6.792;2023-07-13T06:45:43;98969.56;;;22.69;71.07
26807;BME280;14380;49.910;6.792;2023-07-13T06:48:11;98971.94;;;22.54;71.47
26807;BME280;14380;49.910;6.792;2023-07-13T06:50:37;98964.00;;;22.70;68.91
26807;BME280;14380;49.910;6.792;2023-07-13T06:53:04;98966.47;;;23.16;69.11
26807;BME280;14380;49.910;6.792;2023-07-13T06:55:30;98962.66;;;23.01;68.63
26807;BME280;14380;49.910;6.792;2023-07-13T06:57:57;98969.88;;;22.92;67.91
26807;BME280;14380;49.910;6.792;2023-07-13T07:00:24;98965.75;;;21.81;69.59
26807;BME280;14380;49.910;6.792;2023-07-13T07:02:52;98970.03;;;22.28;72.06
26807;BME280;14380;49.910;6.792;2023-07-13T07:05:18;98970.19;;;22.63;67.76
26807;BME280;14380;49.910;6.792;2023-07-13T07:07:47;98967.56;;;23.06;70.37
26807;BME280;14380;49.910;6.792;2023-07-13T07:10:13;98972.50;;;22.84;68.99
26807;BME280;14380;49.910;6.792;2023-07-13T07:12:40;98971.63;;;23.10;67.72
26807;BME280;14380;49.910;6.792;2023-07-13T07:15:07;98975.44;;;22.99;66.60
26807;BME280;14380;49.910;6.792;2023-07-13T07:17:33;98979.06;;;23.16;66.11
26807;BME280;14380;49.910;6.792;2023-07-13T07:20:02;98983.03;;;22.14;67.95
26807;BME280;14380;49.910;6.792;2023-07-13T07:22:28;98975.66;;;22.79;67.09
26807;BME280;14380;49.910;6.792;2023-07-13T07:24:55;98976.50;;;23.33;66.41
26807;BME280;14380;49.910;6.792;2023-07-13T07:27:22;98972.69;;;22.91;66.06
26807;BME280;14380;49.910;6.792;2023-07-13T07:29:48;98980.25;;;23.56;65.67
26807;BME280;14380;49.910;6.792;2023-07-13T07:32:15;98973.28;;;23.97;65.28
26807;BME280;14380;49.910;6.792;2023-07-13T07:34:42;98967.03;;;23.88;64.19
26807;BME280;14380;49.910;6.792;2023-07-13T07:37:11;98969.38;;;23.83;63.69
26807;BME280;14380;49.910;6.792;2023-07-13T07:39:38;98971.84;;;23.59;63.30
26807;BME280;14380;49.910;6.792;2023-07-13T07:42:06;98973.63;;;23.94;63.26
26807;BME280;14380;49.910;6.792;2023-07-13T07:44:32;98969.69;;;23.71;63.26
26807;BME280;14380;49.910;6.792;2023-07-13T07:47:00;98974.19;;;24.22;63.04
26807;BME280;14380;49.910;6.792;2023-07-13T07:49:27;98980.16;;;23.74;62.70
26807;BME280;14380;49.910;6.792;2023-07-13T07:51:53;98981.78;;;23.51;64.48
26807;BME280;14380;49.910;6.792;2023-07-13T07:54:21;98985.22;;;23.00;63.59
26807;BME280;14380;49.910;6.792;2023-07-13T07:56:48;98983.56;;;22.54;65.39
26807;BME280;14380;49.910;6.792;2023-07-13T07:59:14;98984.94;;;23.11;64.66
26807;BME280;14380;49.910;6.792;2023-07-13T08:01:41;98986.47;;;22.87;64.03
26807;BME280;14380;49.910;6.792;2023-07-13T08:04:08;98988.66;;;22.84;64.91
26807;BME280;14380;49.910;6.792;2023-07-13T08:06:35;98977.31;;;22.72;64.28
26807;BME280;14380;49.910;6.792;2023-07-13T08:09:02;98974.00;;;23.99;64.20
26807;BME280;14380;49.910;6.792;2023-07-13T08:11:31;98969.84;;;23.61;62.77
26807;BME280;14380;49.910;6.792;2023-07-13T08:13:57;98965.81;;;23.66;62.37
26807;BME280;14380;49.910;6.792;2023-07-13T08:16:24;98962.56;;;24.22;62.94
26807;BME280;14380;49.910;6.792;2023-07-13T08:18:51;98964.41;;;24.46;62.98
26807;BME280;14380;49.910;6.792;2023-07-13T08:21:17;98966.94;;;24.31;61.26
26807;BME280;14380;49.910;6.792;2023-07-13T08:23:45;98971.75;;;23.86;60.53
26807;BME280;14380;49.910;6.792;2023-07-13T08:26:11;98966.44;;;24.27;61.71
26807;BME280;14380;49.910;6.792;2023-07-13T08:28:39;98968.22;;;23.94;61.03
26807;BME280;14380;49.910;6.792;2023-07-13T08:31:06;98966.44;;;24.35;60.96
26807;BME280;14380;49.910;6.792;2023-07-13T08:33:34;98963.16;;;23.90;61.14
26807;BME280;14380;49.910;6.792;2023-07-13T08:36:01;98961.38;;;24.24;61.57
26807;BME280;14380;49.910;6.792;2023-07-13T08:38:28;98964.69;;;23.93;60.55
26807;BME280;14380;49.910;6.792;2023-07-13T08:40:56;98962.03;;;24.10;61.05
26807;BME280;14380;49.910;6.792;2023-07-13T08:43:26;98962.19;;;24.74;61.74
26807;BME280;14380;49.910;6.792;2023-07-13T08:46:01;98959.31;;;24.84;60.00
26807;BME280;14380;49.910;6.792;2023-07-13T08:48:31;98949.38;;;24.60;58.60
26807;BME280;14380;49.910;6.792;2023-07-13T08:51:02;98948.69;;;24.66;61.08
26807;BME280;14380;49.910;6.792;2023-07-13T08:53:36;98955.16;;;24.24;59.34
26807;BME280;14380;49.910;6.792;2023-07-13T08:56:04;98949.19;;;24.53;58.39
26807;BME280;14380;49.910;6.792;2023-07-13T08:58:33;98943.56;;;25.04;58.83
26807;BME280;14380;49.910;6.792;2023-07-13T09:01:12;98953.78;;;25.26;57.32
26807;BME280;14380;49.910;6.792;2023-07-13T09:03:50;98953.81;;;25.17;58.45
26807;BME280;14380;49.910;6.792;2023-07-13T09:06:23;98960.00;;;24.70;59.59
26807;BME280;14380;49.910;6.792;2023-07-13T09:08:58;98959.44;;;24.99;58.45
26807;BME280;14380;49.910;6.792;2023-07-13T09:11:39;98959.53;;;25.62;57.07
26807;BME280;14380;49.910;6.792;2023-07-13T09:14:26;98958.47;;;24.75;56.79
26807;BME280;14380;49.910;6.792;2023-07-13T09:17:00;98963.53;;;24.70;57.79
26807;BME280;14380;49.910;6.792;2023-07-13T09:19:30;98958.09;;;25.03;58.89
26807;BME280;14380;49.910;6.792;2023-07-13T09:22:02;98957.81;;;25.30;57.96
26807;BME280;14380;49.910;6.792;2023-07-13T09:24:36;98950.19;;;25.73;57.26
26807;BME280;14380;49.910;6.792;2023-07-13T09:27:11;98951.81;;;25.03;57.85
26807;BME280;14380;49.910;6.792;2023-07-13T09:29:45;98962.16;;;24.99;58.33
26807;BME280;14380;49.910;6.792;2023-07-13T09:32:18;98955.09;;;25.69;56.19
26807;BME280;14380;49.910;6.792;2023-07-13T09:34:51;98950.03;;;25.98;55.98
26807;BME280;14380;49.910;6.792;2023-07-13T09:37:19;98959.41;;;25.56;56.04
26807;BME280;14380;49.910;6.792;2023-07-13T09:39:49;98960.56;;;26.16;54.56
26807;BME280;14380;49.910;6.792;2023-07-13T09:42:17;98969.09;;;25.81;55.54
26807;BME280;14380;49.910;6.792;2023-07-13T09:44:52;98960.50;;;26.01;54.96
26807;BME280;14380;49.910;6.792;2023-07-13T09:47:21;98959.47;;;26.02;56.72
26807;BME280;14380;49.910;6.792;2023-07-13T09:49:54;98963.56;;;25.98;56.44
26807;BME280;14380;49.910;6.792;2023-07-13T09:52:21;98964.72;;;26.04;55.59
26807;BME280;14380;49.910;6.792;2023-07-13T09:54:50;98949.97;;;25.43;55.56
26807;BME280;14380;49.910;6.792;2023-07-13T09:57:18;98948.19;;;26.60;56.44
26807;BME280;14380;49.910;6.792;2023-07-13T09:59:47;98954.72;;;26.66;54.70
26807;BME280;14380;49.910;6.792;2023-07-13T10:02:27;98942.00;;;26.51;54.27
26807;BME280;14380;49.910;6.792;2023-07-13T10:04:59;98949.22;;;26.74;55.40
26807;BME280;14380;49.910;6.792;2023-07-13T10:07:26;98952.19;;;26.88;54.15
26807;BME280;14380;49.910;6.792;2023-07-13T10:09:53;98958.34;;;26.96;55.61
26807;BME280;14380;49.910;6.792;2023-07-13T10:12:21;98952.72;;;26.83;53.28
26807;BME280;14380;49.910;6.792;2023-07-13T10:14:50;98946.84;;;27.09;52.61
26807;BME280;14380;49.910;6.792;2023-07-13T10:17:19;98956.09;;;27.15;54.01
26807;BME280;14380;49.910;6.792;2023-07-13T10:19:53;98969.56;;;26.93;53.06
26807;BME280;14380;49.910;6.792;2023-07-13T10:22:25;98959.56;;;26.55;52.14
26807;BME280;14380;49.910;6.792;2023-07-13T10:24:54;98956.53;;;27.49;51.40
26807;BME280;14380;49.910;6.792;2023-07-13T10:27:27;98966.75;;;27.16;51.82
26807;BME280;14380;49.910;6.792;2023-07-13T10:30:02;98954.03;;;27.17;51.14
26807;BME280;14380;49.910;6.792;2023-07-13T10:32:31;98962.47;;;26.69;51.86
26807;BME280;14380;49.910;6.792;2023-07-13T10:34:59;98960.94;;;27.20;51.60
26807;BME280;14380;49.910;6.792;2023-07-13T10:37:33;98970.03;;;26.73;51.81
26807;BME280;14380;49.910;6.792;2023-07-13T10:40:03;98954.56;;;27.27;51.52
26807;BME280;14380;49.910;6.792;2023-07-13T10:42:35;98965.34;;;27.06;53.19
26807;BME280;14380;49.910;6.792;2023-07-13T10:45:12;98973.75;;;27.26;52.92
26807;BME280;14380;49.910;6.792;2023-07-13T10:47:39;98975.66;;;26.72;52.04
26807;BME280;14380;49.910;6.792;2023-07-13T10:50:17;98969.09;;;26.05;54.50
26807;BME280;14380;49.910;6.792;2023-07-13T10:52:46;98972.72;;;26.97;51.98
26807;BME280;14380;49.910;6.792;2023-07-13T10:55:33;98975.25;;;26.83;51.35
26807;BME280;14380;49.910;6.792;2023-07-13T10:58:01;98966.38;;;27.20;51.44
26807;BME280;14380;49.910;6.792;2023-07-13T11:00:31;98977.56;;;27.46;52.99
26807;BME280;14380;49.910;6.792;2023-07-13T11:03:00;98980.09;;;27.18;50.84
26807;BME280;14380;49.910;6.792;2023-07-13T11:05:32;98983.47;;;27.05;50.56
26807;BME280;14380;49.910;6.792;2023-07-13T11:08:11;98978.22;;;27.34;52.91
26807;BME280;14380;49.910;6.792;2023-07-13T11:10:50;98966.56;;;27.33;50.38
26807;BME280;14380;49.910;6.792;2023-07-13T11:13:38;98969.72;;;27.37;50.50
26807;BME280;14380;49.910;6.792;2023-07-13T11:16:34;98956.72;;;27.84;52.53
26807;BME280;14380;49.910;6.792;2023-07-13T11:19:25;98971.53;;;26.99;52.37
26807;BME280;14380;49.910;6.792;2023-07-13T11:22:15;98975.16;;;27.22;52.74
26807;BME280;14380;49.910;6.792;2023-07-13T11:24:50;98965.66;;;26.72;51.23
26807;BME280;14380;49.910;6.792;2023-07-13T11:27:35;98958.38;;;27.63;50.30
26807;BME280;14380;49.910;6.792;2023-07-13T11:30:21;98958.06;;;27.06;51.54
26807;BME280;14380;49.910;6.792;2023-07-13T11:32:51;98964.88;;;27.02;52.50
26807;BME280;14380;49.910;6.792;2023-07-13T11:35:23;98959.06;;;26.37;52.98
26807;BME280;14380;49.910;6.792;2023-07-13T11:37:51;98966.91;;;25.77;54.72
26807;BME280;14380;49.910;6.792;2023-07-13T11:40:18;98977.22;;;25.33;54.50
26807;BME280;14380;49.910;6.792;2023-07-13T11:42:45;98976.91;;;25.28;55.79
26807;BME280;14380;49.910;6.792;2023-07-13T11:45:19;98980.06;;;24.92;55.19
26807;BME280;14380;49.910;6.792;2023-07-13T11:47:48;98967.91;;;25.44;54.89
26807;BME280;14380;49.910;6.792;2023-07-13T11:50:19;98966.94;;;25.29;55.38
26807;BME280;14380;49.910;6.792;2023-07-13T11:52:46;98974.75;;;25.23;55.53
26807;BME280;14380;49.910;6.792;2023-07-13T11:55:18;98982.25;;;25.53;55.47
26807;BME280;14380;49.910;6.792;2023-07-13T11:57:47;98979.22;;;25.39;54.88
26807;BME280;14380;49.910;6.792;2023-07-13T12:00:17;98973.16;;;24.81;55.57
26807;BME280;14380;49.910;6.792;2023-07-13T12:02:47;98983.88;;;25.14;55.21
26807;BME280;14380;49.910;6.792;2023-07-13T12:05:16;98987.28;;;25.08;55.96
26807;BME280;14380;49.910;6.792;2023-07-13T12:07:44;98993.25;;;24.12;55.22
26807;BME280;14380;49.910;6.792;2023-07-13T12:10:20;98991.38;;;24.04;55.59
26807;BME280;14380;49.910;6.792;2023-07-13T12:12:48;98997.38;;;23.90;55.41
26807;BME280;14380;49.910;6.792;2023-07-13T12:15:14;99000.00;;;24.25;55.48
26807;BME280;14380;49.910;6.792;2023-07-13T12:17:41;98993.09;;;24.30;55.76
26807;BME280;14380;49.910;6.792;2023-07-13T12:20:19;98990.47;;;23.96;55.00
26807;BME280;14380;49.910;6.792;2023-07-13T12:22:47;98992.91;;;24.40;55.93
26807;BME280;14380;49.910;6.792;2023-07-13T12:25:15;99000.50;;;24.37;55.93
26807;BME280;14380;49.910;6.792;2023-07-13T12:27:46;99003.53;;;24.17;56.25
26807;BME280;14380;49.910;6.792;2023-07-13T12:30:28;99002.44;;;23.93;56.76
26807;BME280;14380;49.910;6.792;2023-07-13T12:32:58;99008.13;;;23.73;55.51
26807;BME280;14380;49.910;6.792;2023-07-13T12:35:29;99005.78;;;23.79;55.25
26807;BME280;14380;49.910;6.792;2023-07-13T12:38:00;99008.81;;;23.84;55.86
26807;BME280;14380;49.910;6.792;2023-07-13T12:40:33;99003.91;;;23.71;55.04
26807;BME280;14380;49.910;6.792;2023-07-13T12:43:03;99011.63;;;23.66;56.08
26807;BME280;14380;49.910;6.792;2023-07-13T12:45:32;99002.00;;;24.06;54.85
26807;BME280;14380;49.910;6.792;2023-07-13T12:48:03;99007.94;;;24.43;55.95
26807;BME280;14380;49.910;6.792;2023-07-13T12:50:40;99006.06;;;24.18;54.85
26807;BME280;14380;49.910;6.792;2023-07-13T12:53:13;98998.81;;;24.19;54.71
26807;BME280;14380;49.910;6.792;2023-07-13T12:55:42;99007.56;;;24.21;55.32
26807;BME280;14380;49.910;6.792;2023-07-13T12:58:17;99015.59;;;23.96;55.80
26807;BME280;14380;49.910;6.792;2023-07-13T13:00:48;99014.72;;;23.87;55.78
26807;BME280;14380;49.910;6.792;2023-07-13T13:03:22;99019.53;;;23.59;55.19
26807;BME280;14380;49.910;6.792;2023-07-13T13:05:57;99012.13;;;24.20;56.80
26807;BME280;14380;49.910;6.792;2023-07-13T13:08:24;99019.88;;;24.15;55.98
26807;BME280;14380;49.910;6.792;2023-07-13T13:10:50;99016.19;;;24.25;55.56